This is the latest recevied weather packets stored in our database for station/object JM1YTT-13. If no packets are shown the sender has not sent any weather packets the latest 10 day(s).
| Time | Temp. | Humidity | Pressure | Rain* | Wind** | Luminosity | Snow |
|---|---|---|---|---|---|---|---|
| 1777882390 | 22.78° C | 51% | 995.6 hPa | 0 mm | - | - | - |
| 1777880590 | 23.33° C | 51% | 994.4 hPa | 0 mm | - | - | - |
| 1777878790 | 23.89° C | 54% | 994 hPa | 0 mm | - | - | - |
| 1777876990 | 24.44° C | 54% | 993.4 hPa | 0 mm | - | - | - |
| 1777875190 | 25.56° C | 52% | 993.5 hPa | 0 mm | - | - | - |
| 1777873390 | 26.67° C | 48% | 993.4 hPa | 0 mm | - | - | - |
| 1777871590 | 27.22° C | 47% | 993.5 hPa | 0 mm | - | - | - |
| 1777869790 | 27.22° C | 49% | 993.5 hPa | 0 mm | - | - | - |
| 1777867990 | 27.22° C | 50% | 993.9 hPa | 0 mm | - | - | - |
| 1777846390 | 23.89° C | 83% | 995 hPa | 0 mm | - | - | - |
| 1777844590 | 21.67° C | 84% | 996.4 hPa | 0 mm | - | - | - |
| 1777842790 | 21.67° C | 84% | 996.4 hPa | 0 mm | - | - | - |
| 1777839190 | 21.67° C | 84% | 996.5 hPa | 0 mm | - | - | - |
| 1777835590 | 21.11° C | 84% | 997.3 hPa | 0 mm | - | - | - |
| 1777833790 | 20° C | 86% | 998.3 hPa | 0 mm | - | - | - |
| 1777831990 | 20° C | 86% | 999 hPa | 0 mm | - | - | - |
| 1777828390 | 19.44° C | 85% | 1000.4 hPa | 0 mm | - | - | - |
| 1777810390 | 20° C | 78% | 1004.5 hPa | 0 mm | - | - | - |
| 1777801390 | 20.56° C | 75% | 1005.2 hPa | 0 mm | - | - | - |
| 1777799590 | 20.56° C | 74% | 1005.3 hPa | 0 mm | - | - | - |
| 1777795990 | 22.78° C | 64% | 1005.3 hPa | 0 mm | - | - | - |
| 1777792390 | 23.33° C | 57% | 1005.2 hPa | 0 mm | - | - | - |
| 1777790590 | 23.33° C | 56% | 1005.5 hPa | 0 mm | - | - | - |
| 1777788790 | 23.89° C | 62% | 1005.5 hPa | 0 mm | - | - | - |
| 1777786990 | 25° C | 59% | 1006 hPa | 0 mm | - | - | - |
* Rain latest hour (hover to see other rain measurements)
** Current wind speed in m/s (hover to see current wind gust speed)